sensor_id;sensor_type;location;lat;lon;timestamp;P1;durP1;ratioP1;P2;durP2;ratioP2
68074;SDS011;54864;52.002;5.468;2023-07-29T00:00:25;8.23;;;2.13;;
68074;SDS011;54864;52.002;5.468;2023-07-29T00:01:28;9.57;;;2.25;;
68074;SDS011;54864;52.002;5.468;2023-07-29T00:02:31;10.02;;;2.95;;
68074;SDS011;54864;52.002;5.468;2023-07-29T00:03:33;5.35;;;2.10;;
68074;SDS011;54864;52.002;5.468;2023-07-29T00:04:37;4.63;;;2.13;;
68074;SDS011;54864;52.002;5.468;2023-07-29T00:05:39;4.97;;;2.22;;
68074;SDS011;54864;52.002;5.468;2023-07-29T00:06:41;3.45;;;2.25;;
68074;SDS011;54864;52.002;5.468;2023-07-29T00:07:43;6.70;;;2.38;;
68074;SDS011;54864;52.002;5.468;2023-07-29T00:08:43;5.43;;;2.10;;
68074;SDS011;54864;52.002;5.468;2023-07-29T00:09:45;6.03;;;2.15;;
68074;SDS011;54864;52.002;5.468;2023-07-29T00:10:46;4.70;;;2.10;;
68074;SDS011;54864;52.002;5.468;2023-07-29T00:11:51;5.00;;;1.80;;
68074;SDS011;54864;52.002;5.468;2023-07-29T00:12:51;7.25;;;2.30;;
68074;SDS011;54864;52.002;5.468;2023-07-29T00:13:53;6.45;;;2.17;;
68074;SDS011;54864;52.002;5.468;2023-07-29T00:14:56;5.95;;;1.83;;
68074;SDS011;54864;52.002;5.468;2023-07-29T00:15:57;4.13;;;2.22;;
68074;SDS011;54864;52.002;5.468;2023-07-29T00:16:58;6.13;;;2.67;;
68074;SDS011;54864;52.002;5.468;2023-07-29T00:17:59;3.90;;;1.83;;
68074;SDS011;54864;52.002;5.468;2023-07-29T00:19:02;4.65;;;2.03;;
68074;SDS011;54864;52.002;5.468;2023-07-29T00:20:03;4.30;;;2.10;;
68074;SDS011;54864;52.002;5.468;2023-07-29T00:21:06;3.45;;;1.83;;
68074;SDS011;54864;52.002;5.468;2023-07-29T00:22:07;5.72;;;2.22;;
68074;SDS011;54864;52.002;5.468;2023-07-29T00:23:09;6.18;;;2.30;;
68074;SDS011;54864;52.002;5.468;2023-07-29T00:24:10;6.00;;;2.13;;
68074;SDS011;54864;52.002;5.468;2023-07-29T00:25:12;5.53;;;2.80;;
68074;SDS011;54864;52.002;5.468;2023-07-29T00:26:12;7.75;;;2.20;;
68074;SDS011;54864;52.002;5.468;2023-07-29T00:27:14;4.00;;;1.88;;
68074;SDS011;54864;52.002;5.468;2023-07-29T00:28:15;4.50;;;2.05;;
68074;SDS011;54864;52.002;5.468;2023-07-29T00:29:17;9.43;;;3.00;;
68074;SDS011;54864;52.002;5.468;2023-07-29T00:30:19;10.77;;;2.45;;
68074;SDS011;54864;52.002;5.468;2023-07-29T00:31:21;4.85;;;1.90;;
68074;SDS011;54864;52.002;5.468;2023-07-29T00:32:22;6.00;;;1.87;;
68074;SDS011;54864;52.002;5.468;2023-07-29T00:33:24;3.05;;;2.00;;
68074;SDS011;54864;52.002;5.468;2023-07-29T00:34:25;4.47;;;2.10;;
68074;SDS011;54864;52.002;5.468;2023-07-29T00:35:27;3.50;;;2.38;;
68074;SDS011;54864;52.002;5.468;2023-07-29T00:36:27;3.00;;;2.00;;
68074;SDS011;54864;52.002;5.468;2023-07-29T00:37:29;4.93;;;1.80;;
68074;SDS011;54864;52.002;5.468;2023-07-29T00:38:33;4.22;;;2.10;;
68074;SDS011;54864;52.002;5.468;2023-07-29T00:39:38;6.00;;;2.10;;
68074;SDS011;54864;52.002;5.468;2023-07-29T00:40:39;5.75;;;2.10;;
68074;SDS011;54864;52.002;5.468;2023-07-29T00:41:41;7.05;;;2.00;;
68074;SDS011;54864;52.002;5.468;2023-07-29T00:42:42;4.10;;;1.80;;
68074;SDS011;54864;52.002;5.468;2023-07-29T00:43:43;3.75;;;2.15;;
68074;SDS011;54864;52.002;5.468;2023-07-29T00:44:44;3.05;;;1.75;;
68074;SDS011;54864;52.002;5.468;2023-07-29T00:45:47;6.40;;;2.10;;
68074;SDS011;54864;52.002;5.468;2023-07-29T00:46:50;3.40;;;1.83;;
68074;SDS011;54864;52.002;5.468;2023-07-29T00:47:53;3.92;;;2.00;;
68074;SDS011;54864;52.002;5.468;2023-07-29T00:48:54;3.92;;;1.92;;
68074;SDS011;54864;52.002;5.468;2023-07-29T00:49:56;4.25;;;1.92;;
68074;SDS011;54864;52.002;5.468;2023-07-29T00:50:57;4.33;;;1.93;;
68074;SDS011;54864;52.002;5.468;2023-07-29T00:51:59;6.13;;;2.10;;
68074;SDS011;54864;52.002;5.468;2023-07-29T00:53:00;4.88;;;2.00;;
68074;SDS011;54864;52.002;5.468;2023-07-29T00:54:01;2.65;;;1.92;;
68074;SDS011;54864;52.002;5.468;2023-07-29T00:55:04;4.93;;;2.30;;
68074;SDS011;54864;52.002;5.468;2023-07-29T00:56:06;3.00;;;1.98;;
68074;SDS011;54864;52.002;5.468;2023-07-29T00:57:08;3.88;;;2.55;;
68074;SDS011;54864;52.002;5.468;2023-07-29T00:58:11;6.00;;;2.13;;
68074;SDS011;54864;52.002;5.468;2023-07-29T00:59:13;4.35;;;2.17;;
68074;SDS011;54864;52.002;5.468;2023-07-29T01:00:14;3.17;;;1.90;;
68074;SDS011;54864;52.002;5.468;2023-07-29T01:01:18;5.03;;;2.47;;
68074;SDS011;54864;52.002;5.468;2023-07-29T01:02:19;5.73;;;2.10;;
68074;SDS011;54864;52.002;5.468;2023-07-29T01:03:22;6.15;;;2.17;;
68074;SDS011;54864;52.002;5.468;2023-07-29T01:04:23;7.93;;;2.25;;
68074;SDS011;54864;52.002;5.468;2023-07-29T01:05:25;5.57;;;2.30;;
68074;SDS011;54864;52.002;5.468;2023-07-29T01:06:34;4.43;;;2.10;;
68074;SDS011;54864;52.002;5.468;2023-07-29T01:07:44;4.63;;;2.28;;
68074;SDS011;54864;52.002;5.468;2023-07-29T01:08:51;5.47;;;2.10;;
68074;SDS011;54864;52.002;5.468;2023-07-29T01:10:00;5.07;;;2.17;;
68074;SDS011;54864;52.002;5.468;2023-07-29T01:11:08;5.35;;;2.20;;
68074;SDS011;54864;52.002;5.468;2023-07-29T01:12:21;3.05;;;2.35;;
68074;SDS011;54864;52.002;5.468;2023-07-29T01:13:41;5.50;;;2.55;;
68074;SDS011;54864;52.002;5.468;2023-07-29T01:14:51;4.72;;;2.33;;
68074;SDS011;54864;52.002;5.468;2023-07-29T01:16:00;3.45;;;2.08;;
68074;SDS011;54864;52.002;5.468;2023-07-29T01:17:08;4.03;;;2.55;;
68074;SDS011;54864;52.002;5.468;2023-07-29T01:18:18;2.85;;;2.15;;
68074;SDS011;54864;52.002;5.468;2023-07-29T01:19:26;3.60;;;2.10;;
68074;SDS011;54864;52.002;5.468;2023-07-29T01:20:43;6.15;;;2.70;;
68074;SDS011;54864;52.002;5.468;2023-07-29T01:21:45;3.85;;;2.30;;
68074;SDS011;54864;52.002;5.468;2023-07-29T01:22:46;3.90;;;2.40;;
68074;SDS011;54864;52.002;5.468;2023-07-29T01:23:53;5.97;;;2.50;;
68074;SDS011;54864;52.002;5.468;2023-07-29T01:24:59;4.07;;;2.20;;
68074;SDS011;54864;52.002;5.468;2023-07-29T01:26:00;4.00;;;2.35;;
68074;SDS011;54864;52.002;5.468;2023-07-29T01:27:02;5.20;;;2.42;;
68074;SDS011;54864;52.002;5.468;2023-07-29T01:28:04;3.78;;;2.38;;
68074;SDS011;54864;52.002;5.468;2023-07-29T01:29:06;3.90;;;2.20;;
68074;SDS011;54864;52.002;5.468;2023-07-29T01:30:07;5.75;;;3.10;;
68074;SDS011;54864;52.002;5.468;2023-07-29T01:31:10;6.45;;;2.78;;
68074;SDS011;54864;52.002;5.468;2023-07-29T01:32:20;4.70;;;3.03;;
68074;SDS011;54864;52.002;5.468;2023-07-29T01:33:39;7.97;;;3.13;;
68074;SDS011;54864;52.002;5.468;2023-07-29T01:34:48;4.70;;;3.00;;
68074;SDS011;54864;52.002;5.468;2023-07-29T01:35:58;3.67;;;3.13;;
68074;SDS011;54864;52.002;5.468;2023-07-29T01:37:06;6.25;;;3.60;;
68074;SDS011;54864;52.002;5.468;2023-07-29T01:38:17;7.03;;;3.17;;
68074;SDS011;54864;52.002;5.468;2023-07-29T01:39:22;6.68;;;3.45;;
68074;SDS011;54864;52.002;5.468;2023-07-29T01:40:26;5.50;;;4.13;;
68074;SDS011;54864;52.002;5.468;2023-07-29T01:41:31;8.65;;;4.03;;
68074;SDS011;54864;52.002;5.468;2023-07-29T01:42:33;6.72;;;4.05;;
68074;SDS011;54864;52.002;5.468;2023-07-29T01:43:37;12.75;;;4.60;;
68074;SDS011;54864;52.002;5.468;2023-07-29T01:44:43;6.32;;;4.15;;
68074;SDS011;54864;52.002;5.468;2023-07-29T01:45:45;7.28;;;4.13;;
68074;SDS011;54864;52.002;5.468;2023-07-29T01:46:46;5.53;;;4.10;;
68074;SDS011;54864;52.002;5.468;2023-07-29T01:47:48;9.55;;;4.35;;
68074;SDS011;54864;52.002;5.468;2023-07-29T01:48:49;7.50;;;4.47;;
68074;SDS011;54864;52.002;5.468;2023-07-29T01:49:51;7.88;;;4.65;;
68074;SDS011;54864;52.002;5.468;2023-07-29T01:50:52;6.72;;;4.85;;
68074;SDS011;54864;52.002;5.468;2023-07-29T01:51:54;5.95;;;4.57;;
68074;SDS011;54864;52.002;5.468;2023-07-29T01:52:55;7.87;;;4.50;;
68074;SDS011;54864;52.002;5.468;2023-07-29T01:53:57;10.38;;;5.43;;
68074;SDS011;54864;52.002;5.468;2023-07-29T01:55:00;7.95;;;5.28;;
68074;SDS011;54864;52.002;5.468;2023-07-29T01:56:02;8.60;;;5.10;;
68074;SDS011;54864;52.002;5.468;2023-07-29T01:57:03;9.23;;;5.38;;
68074;SDS011;54864;52.002;5.468;2023-07-29T01:58:05;9.05;;;5.20;;
68074;SDS011;54864;52.002;5.468;2023-07-29T01:59:07;10.98;;;5.45;;
68074;SDS011;54864;52.002;5.468;2023-07-29T02:00:09;13.10;;;5.93;;
68074;SDS011;54864;52.002;5.468;2023-07-29T02:01:11;8.13;;;5.40;;
68074;SDS011;54864;52.002;5.468;2023-07-29T02:02:13;12.77;;;6.40;;
68074;SDS011;54864;52.002;5.468;2023-07-29T02:03:14;11.20;;;6.43;;
68074;SDS011;54864;52.002;5.468;2023-07-29T02:04:19;10.23;;;6.15;;
68074;SDS011;54864;52.002;5.468;2023-07-29T02:05:19;10.50;;;5.93;;
68074;SDS011;54864;52.002;5.468;2023-07-29T02:06:21;8.60;;;5.78;;
68074;SDS011;54864;52.002;5.468;2023-07-29T02:07:24;8.55;;;6.13;;
68074;SDS011;54864;52.002;5.468;2023-07-29T02:08:27;10.38;;;6.43;;
68074;SDS011;54864;52.002;5.468;2023-07-29T02:09:46;10.20;;;6.43;;
68074;SDS011;54864;52.002;5.468;2023-07-29T02:10:59;9.20;;;6.25;;
68074;SDS011;54864;52.002;5.468;2023-07-29T02:12:08;13.88;;;6.82;;
68074;SDS011;54864;52.002;5.468;2023-07-29T02:13:10;9.52;;;6.30;;
68074;SDS011;54864;52.002;5.468;2023-07-29T02:14:14;9.63;;;6.50;;
68074;SDS011;54864;52.002;5.468;2023-07-29T02:15:34;8.77;;;6.15;;
68074;SDS011;54864;52.002;5.468;2023-07-29T02:16:54;11.63;;;6.43;;
68074;SDS011;54864;52.002;5.468;2023-07-29T02:17:56;13.75;;;6.85;;
68074;SDS011;54864;52.002;5.468;2023-07-29T02:18:56;10.63;;;6.30;;
68074;SDS011;54864;52.002;5.468;2023-07-29T02:20:17;8.95;;;6.20;;
68074;SDS011;54864;52.002;5.468;2023-07-29T02:21:20;9.60;;;6.30;;
68074;SDS011;54864;52.002;5.468;2023-07-29T02:22:22;11.57;;;6.32;;
68074;SDS011;54864;52.002;5.468;2023-07-29T02:23:23;10.30;;;6.35;;
68074;SDS011;54864;52.002;5.468;2023-07-29T02:24:25;11.27;;;6.07;;
68074;SDS011;54864;52.002;5.468;2023-07-29T02:25:26;9.33;;;6.30;;
68074;SDS011;54864;52.002;5.468;2023-07-29T02:26:29;11.57;;;6.25;;
68074;SDS011;54864;52.002;5.468;2023-07-29T02:27:49;13.55;;;6.40;;
68074;SDS011;54864;52.002;5.468;2023-07-29T02:28:50;12.00;;;6.22;;
68074;SDS011;54864;52.002;5.468;2023-07-29T02:30:10;11.20;;;6.75;;
68074;SDS011;54864;52.002;5.468;2023-07-29T02:31:14;9.68;;;6.05;;
68074;SDS011;54864;52.002;5.468;2023-07-29T02:32:17;11.10;;;7.23;;
68074;SDS011;54864;52.002;5.468;2023-07-29T02:33:19;9.30;;;6.28;;
68074;SDS011;54864;52.002;5.468;2023-07-29T02:34:21;9.48;;;6.55;;
68074;SDS011;54864;52.002;5.468;2023-07-29T02:35:22;11.20;;;6.40;;
68074;SDS011;54864;52.002;5.468;2023-07-29T02:36:32;11.52;;;6.47;;
68074;SDS011;54864;52.002;5.468;2023-07-29T02:37:52;9.15;;;5.95;;
68074;SDS011;54864;52.002;5.468;2023-07-29T02:38:54;9.77;;;6.22;;
68074;SDS011;54864;52.002;5.468;2023-07-29T02:40:13;8.43;;;6.28;;
68074;SDS011;54864;52.002;5.468;2023-07-29T02:41:21;10.77;;;6.07;;
68074;SDS011;54864;52.002;5.468;2023-07-29T02:42:23;9.95;;;6.10;;
68074;SDS011;54864;52.002;5.468;2023-07-29T02:43:25;10.07;;;6.30;;
68074;SDS011;54864;52.002;5.468;2023-07-29T02:44:44;6.85;;;5.60;;
68074;SDS011;54864;52.002;5.468;2023-07-29T02:45:46;9.82;;;5.95;;
68074;SDS011;54864;52.002;5.468;2023-07-29T02:46:47;12.10;;;6.82;;
68074;SDS011;54864;52.002;5.468;2023-07-29T02:47:48;8.15;;;5.20;;
68074;SDS011;54864;52.002;5.468;2023-07-29T02:48:50;8.93;;;5.57;;
68074;SDS011;54864;52.002;5.468;2023-07-29T02:49:52;11.07;;;5.80;;
68074;SDS011;54864;52.002;5.468;2023-07-29T02:50:58;8.82;;;5.30;;
68074;SDS011;54864;52.002;5.468;2023-07-29T02:51:59;11.33;;;5.73;;
68074;SDS011;54864;52.002;5.468;2023-07-29T02:53:09;9.68;;;5.38;;
68074;SDS011;54864;52.002;5.468;2023-07-29T02:54:10;9.80;;;5.32;;
68074;SDS011;54864;52.002;5.468;2023-07-29T02:55:12;8.90;;;5.17;;
68074;SDS011;54864;52.002;5.468;2023-07-29T02:56:13;10.77;;;6.18;;
68074;SDS011;54864;52.002;5.468;2023-07-29T02:57:35;9.15;;;5.63;;
68074;SDS011;54864;52.002;5.468;2023-07-29T02:58:55;9.68;;;5.07;;
68074;SDS011;54864;52.002;5.468;2023-07-29T02:59:56;8.30;;;5.40;;
68074;SDS011;54864;52.002;5.468;2023-07-29T03:01:00;8.90;;;5.75;;
68074;SDS011;54864;52.002;5.468;2023-07-29T03:02:02;9.27;;;5.20;;
68074;SDS011;54864;52.002;5.468;2023-07-29T03:03:06;6.85;;;4.95;;
68074;SDS011;54864;52.002;5.468;2023-07-29T03:04:07;9.38;;;5.13;;
68074;SDS011;54864;52.002;5.468;2023-07-29T03:05:09;10.68;;;4.80;;
68074;SDS011;54864;52.002;5.468;2023-07-29T03:06:12;7.93;;;4.85;;
68074;SDS011;54864;52.002;5.468;2023-07-29T03:07:15;8.70;;;5.60;;
68074;SDS011;54864;52.002;5.468;2023-07-29T03:08:16;7.70;;;5.03;;
68074;SDS011;54864;52.002;5.468;2023-07-29T03:09:18;7.78;;;5.28;;
68074;SDS011;54864;52.002;5.468;2023-07-29T03:10:19;8.35;;;4.50;;
68074;SDS011;54864;52.002;5.468;2023-07-29T03:11:22;9.20;;;4.90;;
68074;SDS011;54864;52.002;5.468;2023-07-29T03:12:36;9.43;;;4.75;;
68074;SDS011;54864;52.002;5.468;2023-07-29T03:13:57;6.43;;;4.88;;
68074;SDS011;54864;52.002;5.468;2023-07-29T03:14:58;6.13;;;4.68;;
68074;SDS011;54864;52.002;5.468;2023-07-29T03:16:04;7.57;;;4.40;;
68074;SDS011;54864;52.002;5.468;2023-07-29T03:17:08;8.48;;;5.50;;
68074;SDS011;54864;52.002;5.468;2023-07-29T03:18:12;6.13;;;4.65;;
68074;SDS011;54864;52.002;5.468;2023-07-29T03:19:13;8.40;;;4.90;;
68074;SDS011;54864;52.002;5.468;2023-07-29T03:20:15;8.73;;;4.88;;
68074;SDS011;54864;52.002;5.468;2023-07-29T03:21:17;9.23;;;4.75;;
68074;SDS011;54864;52.002;5.468;2023-07-29T03:22:28;7.25;;;4.65;;
68074;SDS011;54864;52.002;5.468;2023-07-29T03:23:47;8.63;;;4.63;;
68074;SDS011;54864;52.002;5.468;2023-07-29T03:25:04;7.30;;;5.03;;
68074;SDS011;54864;52.002;5.468;2023-07-29T03:26:06;6.97;;;4.50;;
68074;SDS011;54864;52.002;5.468;2023-07-29T03:27:11;10.25;;;5.47;;
68074;SDS011;54864;52.002;5.468;2023-07-29T03:28:32;6.78;;;4.80;;
68074;SDS011;54864;52.002;5.468;2023-07-29T03:29:49;8.90;;;5.30;;
68074;SDS011;54864;52.002;5.468;2023-07-29T03:30:53;8.65;;;4.88;;
68074;SDS011;54864;52.002;5.468;2023-07-29T03:32:14;8.27;;;5.20;;
68074;SDS011;54864;52.002;5.468;2023-07-29T03:33:24;8.30;;;4.90;;
68074;SDS011;54864;52.002;5.468;2023-07-29T03:34:26;8.00;;;4.88;;
68074;SDS011;54864;52.002;5.468;2023-07-29T03:35:30;9.38;;;4.70;;
68074;SDS011;54864;52.002;5.468;2023-07-29T03:36:50;8.45;;;4.55;;
68074;SDS011;54864;52.002;5.468;2023-07-29T03:37:52;9.48;;;4.43;;
68074;SDS011;54864;52.002;5.468;2023-07-29T03:38:53;9.63;;;4.57;;
68074;SDS011;54864;52.002;5.468;2023-07-29T03:39:55;6.43;;;4.15;;
68074;SDS011;54864;52.002;5.468;2023-07-29T03:41:15;6.25;;;4.85;;
68074;SDS011;54864;52.002;5.468;2023-07-29T03:42:17;6.70;;;4.80;;
68074;SDS011;54864;52.002;5.468;2023-07-29T03:43:37;6.85;;;4.32;;
68074;SDS011;54864;52.002;5.468;2023-07-29T03:44:46;7.55;;;4.65;;
68074;SDS011;54864;52.002;5.468;2023-07-29T03:45:55;9.77;;;4.32;;
68074;SDS011;54864;52.002;5.468;2023-07-29T03:46:57;7.35;;;4.30;;
68074;SDS011;54864;52.002;5.468;2023-07-29T03:48:01;6.28;;;4.30;;
68074;SDS011;54864;52.002;5.468;2023-07-29T03:49:03;8.00;;;4.53;;
68074;SDS011;54864;52.002;5.468;2023-07-29T03:50:04;7.88;;;4.55;;
68074;SDS011;54864;52.002;5.468;2023-07-29T03:51:25;8.02;;;4.28;;
68074;SDS011;54864;52.002;5.468;2023-07-29T03:52:26;7.80;;;3.92;;
68074;SDS011;54864;52.002;5.468;2023-07-29T03:53:46;6.43;;;3.70;;
68074;SDS011;54864;52.002;5.468;2023-07-29T03:54:52;6.05;;;3.85;;
68074;SDS011;54864;52.002;5.468;2023-07-29T03:56:13;10.93;;;4.38;;
68074;SDS011;54864;52.002;5.468;2023-07-29T03:57:14;14.60;;;4.93;;
68074;SDS011;54864;52.002;5.468;2023-07-29T03:58:15;6.20;;;3.80;;
68074;SDS011;54864;52.002;5.468;2023-07-29T03:59:36;6.65;;;3.95;;
68074;SDS011;54864;52.002;5.468;2023-07-29T04:00:38;4.87;;;3.97;;
68074;SDS011;54864;52.002;5.468;2023-07-29T04:01:39;8.02;;;4.65;;
68074;SDS011;54864;52.002;5.468;2023-07-29T04:02:41;8.13;;;4.10;;
68074;SDS011;54864;52.002;5.468;2023-07-29T04:04:01;4.90;;;3.42;;
68074;SDS011;54864;52.002;5.468;2023-07-29T04:05:03;6.85;;;4.07;;
68074;SDS011;54864;52.002;5.468;2023-07-29T04:06:10;6.72;;;3.85;;
68074;SDS011;54864;52.002;5.468;2023-07-29T04:07:12;6.68;;;3.95;;
68074;SDS011;54864;52.002;5.468;2023-07-29T04:08:13;8.40;;;4.20;;
68074;SDS011;54864;52.002;5.468;2023-07-29T04:09:14;5.47;;;4.00;;
68074;SDS011;54864;52.002;5.468;2023-07-29T04:10:21;7.40;;;3.95;;
68074;SDS011;54864;52.002;5.468;2023-07-29T04:11:23;7.43;;;3.95;;
68074;SDS011;54864;52.002;5.468;2023-07-29T04:12:36;6.07;;;3.75;;
68074;SDS011;54864;52.002;5.468;2023-07-29T04:13:57;6.47;;;3.80;;
68074;SDS011;54864;52.002;5.468;2023-07-29T04:14:59;5.63;;;3.75;;
68074;SDS011;54864;52.002;5.468;2023-07-29T04:16:01;5.82;;;3.83;;
68074;SDS011;54864;52.002;5.468;2023-07-29T04:17:08;6.35;;;4.10;;
68074;SDS011;54864;52.002;5.468;2023-07-29T04:18:10;7.45;;;4.10;;
68074;SDS011;54864;52.002;5.468;2023-07-29T04:19:11;6.57;;;3.70;;
68074;SDS011;54864;52.002;5.468;2023-07-29T04:20:13;6.65;;;4.10;;
68074;SDS011;54864;52.002;5.468;2023-07-29T04:21:14;5.85;;;3.80;;
68074;SDS011;54864;52.002;5.468;2023-07-29T04:22:16;9.20;;;3.88;;
68074;SDS011;54864;52.002;5.468;2023-07-29T04:23:17;4.20;;;3.40;;
68074;SDS011;54864;52.002;5.468;2023-07-29T04:24:17;5.13;;;3.78;;
68074;SDS011;54864;52.002;5.468;2023-07-29T04:25:21;5.20;;;3.47;;
68074;SDS011;54864;52.002;5.468;2023-07-29T04:26:25;5.05;;;3.58;;
68074;SDS011;54864;52.002;5.468;2023-07-29T04:27:26;8.38;;;3.65;;
68074;SDS011;54864;52.002;5.468;2023-07-29T04:28:46;5.28;;;3.50;;
68074;SDS011;54864;52.002;5.468;2023-07-29T04:29:48;6.55;;;3.45;;
68074;SDS011;54864;52.002;5.468;2023-07-29T04:30:50;6.90;;;3.80;;
68074;SDS011;54864;52.002;5.468;2023-07-29T04:31:52;6.07;;;2.97;;
68074;SDS011;54864;52.002;5.468;2023-07-29T04:33:12;6.72;;;3.75;;
68074;SDS011;54864;52.002;5.468;2023-07-29T04:34:14;5.75;;;3.40;;
68074;SDS011;54864;52.002;5.468;2023-07-29T04:35:21;5.35;;;3.13;;
68074;SDS011;54864;52.002;5.468;2023-07-29T04:36:23;6.05;;;3.33;;
68074;SDS011;54864;52.002;5.468;2023-07-29T04:37:23;6.35;;;3.00;;
68074;SDS011;54864;52.002;5.468;2023-07-29T04:38:36;5.72;;;3.30;;
68074;SDS011;54864;52.002;5.468;2023-07-29T04:39:56;5.72;;;3.67;;
68074;SDS011;54864;52.002;5.468;2023-07-29T04:40:58;7.85;;;3.70;;
68074;SDS011;54864;52.002;5.468;2023-07-29T04:42:01;5.50;;;3.08;;
68074;SDS011;54864;52.002;5.468;2023-07-29T04:43:03;14.73;;;3.75;;
68074;SDS011;54864;52.002;5.468;2023-07-29T04:44:06;5.38;;;3.10;;
68074;SDS011;54864;52.002;5.468;2023-07-29T04:45:08;9.30;;;3.78;;
68074;SDS011;54864;52.002;5.468;2023-07-29T04:46:11;4.95;;;3.42;;
68074;SDS011;54864;52.002;5.468;2023-07-29T04:47:13;7.05;;;3.47;;
68074;SDS011;54864;52.002;5.468;2023-07-29T04:48:14;6.35;;;3.50;;
68074;SDS011;54864;52.002;5.468;2023-07-29T04:49:15;6.10;;;3.85;;
68074;SDS011;54864;52.002;5.468;2023-07-29T04:50:16;6.57;;;3.50;;
68074;SDS011;54864;52.002;5.468;2023-07-29T04:51:18;7.00;;;3.58;;
68074;SDS011;54864;52.002;5.468;2023-07-29T04:52:18;5.70;;;3.35;;
68074;SDS011;54864;52.002;5.468;2023-07-29T04:53:24;6.90;;;3.38;;
68074;SDS011;54864;52.002;5.468;2023-07-29T04:54:25;5.03;;;3.80;;
68074;SDS011;54864;52.002;5.468;2023-07-29T04:55:27;7.78;;;3.45;;
68074;SDS011;54864;52.002;5.468;2023-07-29T04:56:33;4.75;;;3.40;;
68074;SDS011;54864;52.002;5.468;2023-07-29T04:57:35;6.03;;;3.22;;
68074;SDS011;54864;52.002;5.468;2023-07-29T04:58:38;6.20;;;3.83;;
68074;SDS011;54864;52.002;5.468;2023-07-29T04:59:40;7.68;;;3.55;;
68074;SDS011;54864;52.002;5.468;2023-07-29T05:00:41;6.35;;;3.60;;
68074;SDS011;54864;52.002;5.468;2023-07-29T05:01:44;5.60;;;3.97;;
68074;SDS011;54864;52.002;5.468;2023-07-29T05:02:54;5.90;;;3.67;;
68074;SDS011;54864;52.002;5.468;2023-07-29T05:04:14;5.32;;;3.38;;
68074;SDS011;54864;52.002;5.468;2023-07-29T05:05:18;6.70;;;3.35;;
68074;SDS011;54864;52.002;5.468;2023-07-29T05:06:20;5.70;;;3.60;;
68074;SDS011;54864;52.002;5.468;2023-07-29T05:07:21;4.55;;;3.55;;
68074;SDS011;54864;52.002;5.468;2023-07-29T05:08:22;6.25;;;3.45;;
68074;SDS011;54864;52.002;5.468;2023-07-29T05:09:24;6.55;;;3.78;;
68074;SDS011;54864;52.002;5.468;2023-07-29T05:10:44;5.85;;;3.72;;
68074;SDS011;54864;52.002;5.468;2023-07-29T05:12:08;6.63;;;3.88;;
68074;SDS011;54864;52.002;5.468;2023-07-29T05:13:12;6.65;;;3.90;;
68074;SDS011;54864;52.002;5.468;2023-07-29T05:14:14;6.45;;;3.72;;
68074;SDS011;54864;52.002;5.468;2023-07-29T05:15:15;7.05;;;3.53;;
68074;SDS011;54864;52.002;5.468;2023-07-29T05:16:16;5.53;;;3.78;;
68074;SDS011;54864;52.002;5.468;2023-07-29T05:17:19;7.67;;;3.60;;
68074;SDS011;54864;52.002;5.468;2023-07-29T05:18:20;6.90;;;3.85;;
68074;SDS011;54864;52.002;5.468;2023-07-29T05:19:37;6.78;;;3.88;;
68074;SDS011;54864;52.002;5.468;2023-07-29T05:20:38;5.23;;;3.30;;
68074;SDS011;54864;52.002;5.468;2023-07-29T05:21:45;6.43;;;3.63;;
68074;SDS011;54864;52.002;5.468;2023-07-29T05:22:49;5.88;;;3.80;;
68074;SDS011;54864;52.002;5.468;2023-07-29T05:23:53;7.63;;;4.07;;
68074;SDS011;54864;52.002;5.468;2023-07-29T05:25:12;5.05;;;3.45;;
68074;SDS011;54864;52.002;5.468;2023-07-29T05:26:14;6.20;;;3.78;;
68074;SDS011;54864;52.002;5.468;2023-07-29T05:27:16;6.53;;;4.20;;
68074;SDS011;54864;52.002;5.468;2023-07-29T05:28:17;8.13;;;4.23;;
68074;SDS011;54864;52.002;5.468;2023-07-29T05:29:18;8.15;;;4.10;;
68074;SDS011;54864;52.002;5.468;2023-07-29T05:30:20;10.20;;;4.20;;
68074;SDS011;54864;52.002;5.468;2023-07-29T05:31:21;5.90;;;3.80;;
68074;SDS011;54864;52.002;5.468;2023-07-29T05:32:24;6.72;;;3.97;;
68074;SDS011;54864;52.002;5.468;2023-07-29T05:33:25;6.60;;;4.35;;
68074;SDS011;54864;52.002;5.468;2023-07-29T05:34:46;6.60;;;3.90;;
68074;SDS011;54864;52.002;5.468;2023-07-29T05:35:49;5.90;;;3.63;;
68074;SDS011;54864;52.002;5.468;2023-07-29T05:36:51;8.02;;;3.80;;
68074;SDS011;54864;52.002;5.468;2023-07-29T05:38:11;5.78;;;3.63;;
68074;SDS011;54864;52.002;5.468;2023-07-29T05:39:31;9.43;;;4.20;;
68074;SDS011;54864;52.002;5.468;2023-07-29T05:40:33;8.50;;;4.47;;
68074;SDS011;54864;52.002;5.468;2023-07-29T05:41:41;6.57;;;4.25;;
68074;SDS011;54864;52.002;5.468;2023-07-29T05:42:42;5.15;;;3.35;;
68074;SDS011;54864;52.002;5.468;2023-07-29T05:43:56;5.03;;;3.78;;
68074;SDS011;54864;52.002;5.468;2023-07-29T05:44:57;8.53;;;4.30;;
68074;SDS011;54864;52.002;5.468;2023-07-29T05:45:59;7.20;;;4.45;;
68074;SDS011;54864;52.002;5.468;2023-07-29T05:47:00;6.72;;;4.47;;
68074;SDS011;54864;52.002;5.468;2023-07-29T05:48:22;7.43;;;4.30;;
68074;SDS011;54864;52.002;5.468;2023-07-29T05:49:23;6.30;;;4.20;;
68074;SDS011;54864;52.002;5.468;2023-07-29T05:50:25;8.87;;;4.63;;
68074;SDS011;54864;52.002;5.468;2023-07-29T05:51:25;6.95;;;4.45;;
68074;SDS011;54864;52.002;5.468;2023-07-29T05:52:28;7.57;;;4.47;;
68074;SDS011;54864;52.002;5.468;2023-07-29T05:53:29;6.00;;;4.27;;
68074;SDS011;54864;52.002;5.468;2023-07-29T05:54:33;7.68;;;5.03;;
68074;SDS011;54864;52.002;5.468;2023-07-29T05:55:36;9.80;;;4.50;;
68074;SDS011;54864;52.002;5.468;2023-07-29T05:56:38;10.27;;;4.82;;
68074;SDS011;54864;52.002;5.468;2023-07-29T05:57:39;7.32;;;4.95;;
68074;SDS011;54864;52.002;5.468;2023-07-29T05:58:41;9.77;;;4.47;;
68074;SDS011;54864;52.002;5.468;2023-07-29T06:00:00;8.80;;;5.15;;
68074;SDS011;54864;52.002;5.468;2023-07-29T06:01:21;8.50;;;5.20;;
68074;SDS011;54864;52.002;5.468;2023-07-29T06:02:22;9.07;;;4.80;;
68074;SDS011;54864;52.002;5.468;2023-07-29T06:03:25;9.10;;;4.88;;
68074;SDS011;54864;52.002;5.468;2023-07-29T06:04:25;7.60;;;5.13;;
68074;SDS011;54864;52.002;5.468;2023-07-29T06:05:30;8.88;;;5.22;;
68074;SDS011;54864;52.002;5.468;2023-07-29T06:06:49;8.88;;;5.18;;
68074;SDS011;54864;52.002;5.468;2023-07-29T06:07:54;7.60;;;4.85;;
68074;SDS011;54864;52.002;5.468;2023-07-29T06:09:14;7.82;;;5.18;;
68074;SDS011;54864;52.002;5.468;2023-07-29T06:10:15;5.80;;;4.72;;
68074;SDS011;54864;52.002;5.468;2023-07-29T06:11:17;7.53;;;5.30;;
68074;SDS011;54864;52.002;5.468;2023-07-29T06:12:19;6.47;;;4.85;;
68074;SDS011;54864;52.002;5.468;2023-07-29T06:13:20;7.95;;;4.93;;
68074;SDS011;54864;52.002;5.468;2023-07-29T06:14:21;7.93;;;4.95;;
68074;SDS011;54864;52.002;5.468;2023-07-29T06:15:22;7.67;;;4.73;;
68074;SDS011;54864;52.002;5.468;2023-07-29T06:16:24;8.15;;;5.20;;
68074;SDS011;54864;52.002;5.468;2023-07-29T06:17:30;7.75;;;4.82;;
68074;SDS011;54864;52.002;5.468;2023-07-29T06:18:33;8.55;;;5.22;;
68074;SDS011;54864;52.002;5.468;2023-07-29T06:19:34;9.65;;;5.25;;
68074;SDS011;54864;52.002;5.468;2023-07-29T06:20:51;8.93;;;5.28;;
68074;SDS011;54864;52.002;5.468;2023-07-29T06:21:54;8.45;;;4.80;;
68074;SDS011;54864;52.002;5.468;2023-07-29T06:22:56;8.23;;;5.13;;
68074;SDS011;54864;52.002;5.468;2023-07-29T06:23:57;8.73;;;5.32;;
68074;SDS011;54864;52.002;5.468;2023-07-29T06:24:59;8.77;;;6.13;;
68074;SDS011;54864;52.002;5.468;2023-07-29T06:26:00;9.60;;;5.47;;
68074;SDS011;54864;52.002;5.468;2023-07-29T06:27:20;8.45;;;5.07;;
68074;SDS011;54864;52.002;5.468;2023-07-29T06:28:20;6.35;;;4.85;;
68074;SDS011;54864;52.002;5.468;2023-07-29T06:29:34;9.13;;;5.57;;
68074;SDS011;54864;52.002;5.468;2023-07-29T06:30:41;7.68;;;5.00;;
68074;SDS011;54864;52.002;5.468;2023-07-29T06:31:42;9.68;;;5.47;;